Atlantic - Newfoundland: Past 24 Hour Conditions

 

Stephenville Airport

09:30 PM NDT 20 April 2014
This table is a summary of hourly weather conditions for the past 24 hours.
Date / Time
(NDT)
Wind(knots) Conditions Visibility(km) Pressure(kPa) Air tempC) Relative humidity(%) Dew pointC) Wind Chill
20 April 2014
21:30 WNW 7 Mainly Clear 24 102.3 -1 63 -7 -5
20:30 NW 11 Mainly Clear 24 102.3 -1 64 -7 -6
19:30 WNW 15 Mainly Sunny 24 102.2 0 60 -7 -7
18:30 WNW 10 Mainly Sunny 24 102.3 0 57 -8 -5
17:30 WNW 20 Mainly Sunny 24 102.3 0 60 -7 -8
16:30 WNW 20 Mainly Sunny 24 102.3 0 59 -7 -8
15:30 WNW 20 Mainly Sunny 24 102.2 0 57 -8 -8
14:30 WNW 18 gust 26 Mainly Sunny 24 102.3 0 56 -8 -7
13:30 NNW 13 Mainly Sunny 24 102.2 -1 55 -9 -7
12:30 WNW 17 Mainly Sunny 24 102.2 -1 56 -8 -8
11:30 NW 15 Mainly Sunny 24 102.2 -1 59 -8 -7
10:30 NW 16 Cloudy 24 102.2 -1 68 -7 -8
9:30 NW 10 Light Snowshower 19 102.1 -1 81 -4 -6
8:30 NNW 10 Cloudy 24 102.0 0 80 -3 -5
7:30 NNW 8 Mostly Cloudy 24 101.9 -1 79 -4 -5
6:30 NNW 13 Partly Cloudy 24 101.8 -1 82 -4 -7
5:30 calm Mostly Cloudy 24 101.7 -1 83 -3 *
4:30 NW 13 Cloudy 24 101.7 -1 85 -3 -7
3:30 NW 10 Cloudy 24 101.6 -1 83 -4 -6
2:30 NNW 13 Cloudy 24 101.6 -1 85 -3 -7
1:30 NNW 15 Cloudy 24 101.6 -1 84 -4 -8
0:30 NNW 15 Cloudy 24 101.5 -1 84 -4 -8
19 April 2014
23:30 NNW 18 gust 25 Cloudy 24 101.5 -1 82 -4 -9
22:30 NNW 18 gust 25 Cloudy 24 101.4 -1 82 -4 -8
21:30 NNW 20 gust 27 Cloudy 24 101.4 -1 79 -4 -8
 
Map of Atlantic - Newfoundland marine weather areas Southwestern Grand Banks - 44138 Banquereau - 44139 Tail of the Bank - 44140 Nickerson Bank - 44251 Northeast Burgeo Bank - 44255 Blanc-Sablon Airport Cap Whittle Chevery Natashquan Airport Heath Point Miscou Island Grand Étang Ingonish Beach North Mountain St.Paul Island J.A. Douglas McCurdy Sydney Airport Charlottetown Airport East Point North Cape Argentia Bonavista Burgeo Cape Race Corner Brook Daniel's Harbour Englee Ferolle Point La Scie Port aux Basques Rocky Harbour Sagona Island St. Anthony Airport St. John's Int'l Airport St. Lawrence Stephenville Airport Twillingate Winterland Wreckhouse Cartwright Airport Mary's Harbour Grates Cove Pool's Island Marticot Island Long Pond Îles de la Madeleine Airport
Legend: buoyBuoy land stationLand Station